<?xml version="1.0" encoding="UTF-8" standalone="no" ?>
<gpx xmlns="http://www.topografix.com/GPX/1/1" xmlns:xsi="http://www.w3.org/2001/XMLSchema-instance" xsi:schemaLocation="http://www.topografix.com/GPX/1/1 http://www.topografix.com/GPX/1/1/gpx.xsd" version="1.1" creator="VisuGPX - https://www.visugpx.com">
  <metadata>
    <name>AVF - Ma - 25-03- Taradeau - Circuit Touristique</name>
    <desc><![CDATA[Taradeau - Circuit Touristique]]></desc>
  </metadata>
  <wpt lat="43.46601" lon="6.42083">
    <ele>119.65</ele>
    <name><![CDATA[bergerie]]></name>
    <desc><![CDATA[]]></desc>
    <type><![CDATA[Point de navigation]]></type>
  </wpt>
  <trk>
    <name><![CDATA[Taradeau anne]]></name>
    <desc><![CDATA[<h1>OruxMaps</h1><br /><hr align="center" width="480" style="height: 2px; width: 517px"/><h2>Nom: Taradeau anne</h2><br /><p>Temps de départ: 03/25/2014 10:55</p><p>Temps d'arrivée: 03/25/2014 15:50</p><p>Distance: 9 km (02:53)</p><p>Temps déplacement: 02:30</p><p>Vitesse moyenne: 3,1 km/h</p><p>Vitesse moyenne: 3,6 km/h</p><p>Vitess Max.: 6,4 km/h</p><p>Altitude minimale: 107 m</p><p>Altitude maximale: 252 m</p><p>Vitesse d'élévation: 166,5 m/h</p><p>Vitesse de descente: -202,9 m/h</p><p>Gain Altitude: 119 m</p><p>Perte Altitude: -165 m</p><p>Temps d'élévation: 00:43</p><p>Temps de descente: 00:48</p><hr align="center" width="480" style="height: 2px; width: 517px"/>]]></desc>
    <trkseg>
      <trkpt lat="43.45969" lon="6.43114">
        <ele>230.2</ele>
        <time>2014-03-25T09:55:21Z</time>
      </trkpt>
      <trkpt lat="43.45972" lon="6.43111">
        <ele>220.07</ele>
        <time>2014-03-25T09:55:57Z</time>
      </trkpt>
      <trkpt lat="43.45972" lon="6.43113">
        <ele>214.59</ele>
        <time>2014-03-25T09:56:55Z</time>
      </trkpt>
      <trkpt lat="43.45971" lon="6.43116">
        <ele>211.54</ele>
        <time>2014-03-25T09:58:19Z</time>
      </trkpt>
      <trkpt lat="43.45971" lon="6.43114">
        <ele>210.43</ele>
        <time>2014-03-25T09:59:09Z</time>
      </trkpt>
      <trkpt lat="43.45965" lon="6.43113">
        <ele>210.02</ele>
        <time>2014-03-25T10:00:03Z</time>
      </trkpt>
      <trkpt lat="43.45971" lon="6.43113">
        <ele>211.33</ele>
        <time>2014-03-25T10:01:01Z</time>
      </trkpt>
      <trkpt lat="43.45971" lon="6.43113">
        <ele>211.33</ele>
        <time>2014-03-25T10:01:01Z</time>
      </trkpt>
      <trkpt lat="43.45972" lon="6.43115">
        <ele>210.75</ele>
        <time>2014-03-25T10:01:25Z</time>
      </trkpt>
      <trkpt lat="43.4597" lon="6.43116">
        <ele>210.09</ele>
        <time>2014-03-25T10:01:45Z</time>
      </trkpt>
      <trkpt lat="43.4598" lon="6.43136">
        <ele>208.92</ele>
        <time>2014-03-25T10:02:37Z</time>
      </trkpt>
      <trkpt lat="43.45982" lon="6.43161">
        <ele>209.54</ele>
        <time>2014-03-25T10:03:11Z</time>
      </trkpt>
      <trkpt lat="43.45981" lon="6.4317">
        <ele>210.31</ele>
        <time>2014-03-25T10:03:45Z</time>
      </trkpt>
      <trkpt lat="43.45981" lon="6.43196">
        <ele>210.71</ele>
        <time>2014-03-25T10:04:11Z</time>
      </trkpt>
      <trkpt lat="43.45981" lon="6.43196">
        <ele>210.71</ele>
        <time>2014-03-25T10:04:11Z</time>
      </trkpt>
      <trkpt lat="43.45985" lon="6.43221">
        <ele>214.7</ele>
        <time>2014-03-25T10:04:43Z</time>
      </trkpt>
      <trkpt lat="43.45987" lon="6.43247">
        <ele>216.67</ele>
        <time>2014-03-25T10:05:17Z</time>
      </trkpt>
      <trkpt lat="43.45992" lon="6.43272">
        <ele>222.34</ele>
        <time>2014-03-25T10:06:05Z</time>
      </trkpt>
      <trkpt lat="43.45993" lon="6.43297">
        <ele>227.72</ele>
        <time>2014-03-25T10:06:59Z</time>
      </trkpt>
      <trkpt lat="43.45993" lon="6.43297">
        <ele>227.72</ele>
        <time>2014-03-25T10:06:59Z</time>
      </trkpt>
      <trkpt lat="43.45992" lon="6.43321">
        <ele>230.85</ele>
        <time>2014-03-25T10:07:51Z</time>
      </trkpt>
      <trkpt lat="43.45981" lon="6.43342">
        <ele>233.03</ele>
        <time>2014-03-25T10:08:38Z</time>
      </trkpt>
      <trkpt lat="43.45974" lon="6.43367">
        <ele>234.01</ele>
        <time>2014-03-25T10:08:56Z</time>
      </trkpt>
      <trkpt lat="43.45973" lon="6.43392">
        <ele>234.79</ele>
        <time>2014-03-25T10:09:44Z</time>
      </trkpt>
      <trkpt lat="43.45971" lon="6.43418">
        <ele>236.94</ele>
        <time>2014-03-25T10:10:04Z</time>
      </trkpt>
      <trkpt lat="43.45971" lon="6.43418">
        <ele>236.94</ele>
        <time>2014-03-25T10:10:04Z</time>
      </trkpt>
      <trkpt lat="43.45971" lon="6.43446">
        <ele>236.61</ele>
        <time>2014-03-25T10:10:24Z</time>
      </trkpt>
      <trkpt lat="43.45976" lon="6.43472">
        <ele>236.93</ele>
        <time>2014-03-25T10:10:50Z</time>
      </trkpt>
      <trkpt lat="43.45961" lon="6.4349">
        <ele>236.38</ele>
        <time>2014-03-25T10:11:12Z</time>
      </trkpt>
      <trkpt lat="43.45946" lon="6.43505">
        <ele>235.11</ele>
        <time>2014-03-25T10:11:32Z</time>
      </trkpt>
      <trkpt lat="43.45932" lon="6.43522">
        <ele>234.71</ele>
        <time>2014-03-25T10:11:48Z</time>
      </trkpt>
      <trkpt lat="43.45918" lon="6.43537">
        <ele>234.19</ele>
        <time>2014-03-25T10:12:10Z</time>
      </trkpt>
      <trkpt lat="43.45903" lon="6.43553">
        <ele>234.62</ele>
        <time>2014-03-25T10:12:28Z</time>
      </trkpt>
      <trkpt lat="43.45888" lon="6.43566">
        <ele>235.32</ele>
        <time>2014-03-25T10:12:48Z</time>
      </trkpt>
      <trkpt lat="43.45872" lon="6.43582">
        <ele>234.71</ele>
        <time>2014-03-25T10:13:08Z</time>
      </trkpt>
      <trkpt lat="43.45872" lon="6.43582">
        <ele>234.71</ele>
        <time>2014-03-25T10:13:08Z</time>
      </trkpt>
      <trkpt lat="43.45857" lon="6.43598">
        <ele>235.51</ele>
        <time>2014-03-25T10:13:28Z</time>
      </trkpt>
      <trkpt lat="43.45843" lon="6.43613">
        <ele>235.99</ele>
        <time>2014-03-25T10:13:46Z</time>
      </trkpt>
      <trkpt lat="43.45826" lon="6.43628">
        <ele>237.03</ele>
        <time>2014-03-25T10:14:06Z</time>
      </trkpt>
      <trkpt lat="43.45809" lon="6.43642">
        <ele>238.12</ele>
        <time>2014-03-25T10:14:28Z</time>
      </trkpt>
      <trkpt lat="43.45793" lon="6.43654">
        <ele>238.71</ele>
        <time>2014-03-25T10:14:48Z</time>
      </trkpt>
      <trkpt lat="43.45776" lon="6.43665">
        <ele>240.45</ele>
        <time>2014-03-25T10:15:10Z</time>
      </trkpt>
      <trkpt lat="43.45758" lon="6.43672">
        <ele>241.7</ele>
        <time>2014-03-25T10:15:36Z</time>
      </trkpt>
      <trkpt lat="43.45738" lon="6.43664">
        <ele>243.66</ele>
        <time>2014-03-25T10:15:56Z</time>
      </trkpt>
      <trkpt lat="43.45738" lon="6.43664">
        <ele>243.66</ele>
        <time>2014-03-25T10:15:56Z</time>
      </trkpt>
      <trkpt lat="43.4572" lon="6.43659">
        <ele>245.09</ele>
        <time>2014-03-25T10:16:26Z</time>
      </trkpt>
      <trkpt lat="43.45701" lon="6.43652">
        <ele>245.28</ele>
        <time>2014-03-25T10:16:44Z</time>
      </trkpt>
      <trkpt lat="43.45681" lon="6.43652">
        <ele>244.62</ele>
        <time>2014-03-25T10:17:04Z</time>
      </trkpt>
      <trkpt lat="43.4566" lon="6.43652">
        <ele>244.98</ele>
        <time>2014-03-25T10:17:22Z</time>
      </trkpt>
      <trkpt lat="43.45641" lon="6.43657">
        <ele>245.1</ele>
        <time>2014-03-25T10:17:40Z</time>
      </trkpt>
      <trkpt lat="43.45624" lon="6.4367">
        <ele>244.85</ele>
        <time>2014-03-25T10:18:00Z</time>
      </trkpt>
      <trkpt lat="43.45609" lon="6.43682">
        <ele>244.34</ele>
        <time>2014-03-25T10:18:18Z</time>
      </trkpt>
      <trkpt lat="43.45591" lon="6.4369">
        <ele>244.01</ele>
        <time>2014-03-25T10:18:38Z</time>
      </trkpt>
      <trkpt lat="43.45573" lon="6.43699">
        <ele>242.91</ele>
        <time>2014-03-25T10:19:08Z</time>
      </trkpt>
      <trkpt lat="43.45573" lon="6.43699">
        <ele>242.91</ele>
        <time>2014-03-25T10:19:08Z</time>
      </trkpt>
      <trkpt lat="43.45555" lon="6.43698">
        <ele>244.07</ele>
        <time>2014-03-25T10:19:38Z</time>
      </trkpt>
      <trkpt lat="43.45573" lon="6.43698">
        <ele>245.99</ele>
        <time>2014-03-25T10:20:52Z</time>
      </trkpt>
      <trkpt lat="43.4558" lon="6.43674">
        <ele>244.65</ele>
        <time>2014-03-25T10:22:04Z</time>
      </trkpt>
      <trkpt lat="43.4558" lon="6.43674">
        <ele>244.65</ele>
        <time>2014-03-25T10:22:04Z</time>
      </trkpt>
      <trkpt lat="43.45586" lon="6.43649">
        <ele>242.34</ele>
        <time>2014-03-25T10:22:32Z</time>
      </trkpt>
      <trkpt lat="43.45588" lon="6.43624">
        <ele>240.71</ele>
        <time>2014-03-25T10:23:08Z</time>
      </trkpt>
      <trkpt lat="43.45581" lon="6.43601">
        <ele>236.11</ele>
        <time>2014-03-25T10:23:54Z</time>
      </trkpt>
      <trkpt lat="43.45568" lon="6.43584">
        <ele>234</ele>
        <time>2014-03-25T10:24:40Z</time>
      </trkpt>
      <trkpt lat="43.45552" lon="6.43568">
        <ele>234.73</ele>
        <time>2014-03-25T10:25:06Z</time>
      </trkpt>
      <trkpt lat="43.45552" lon="6.43568">
        <ele>234.73</ele>
        <time>2014-03-25T10:25:06Z</time>
      </trkpt>
      <trkpt lat="43.45546" lon="6.43562">
        <ele>235.99</ele>
        <time>2014-03-25T10:25:26Z</time>
      </trkpt>
      <trkpt lat="43.45541" lon="6.43573">
        <ele>237.33</ele>
        <time>2014-03-25T10:26:50Z</time>
      </trkpt>
      <trkpt lat="43.45536" lon="6.43598">
        <ele>238.72</ele>
        <time>2014-03-25T10:27:28Z</time>
      </trkpt>
      <trkpt lat="43.45536" lon="6.43598">
        <ele>238.72</ele>
        <time>2014-03-25T10:27:28Z</time>
      </trkpt>
      <trkpt lat="43.45534" lon="6.43612">
        <ele>240.05</ele>
        <time>2014-03-25T10:28:26Z</time>
      </trkpt>
      <trkpt lat="43.4554" lon="6.43588">
        <ele>239.67</ele>
        <time>2014-03-25T10:28:56Z</time>
      </trkpt>
      <trkpt lat="43.45539" lon="6.43564">
        <ele>241.19</ele>
        <time>2014-03-25T10:29:32Z</time>
      </trkpt>
      <trkpt lat="43.45521" lon="6.43556">
        <ele>239.21</ele>
        <time>2014-03-25T10:30:02Z</time>
      </trkpt>
      <trkpt lat="43.45502" lon="6.43555">
        <ele>237.4</ele>
        <time>2014-03-25T10:30:42Z</time>
      </trkpt>
      <trkpt lat="43.45502" lon="6.43555">
        <ele>237.4</ele>
        <time>2014-03-25T10:30:42Z</time>
      </trkpt>
      <trkpt lat="43.45491" lon="6.43558">
        <ele>236.3</ele>
        <time>2014-03-25T10:31:30Z</time>
      </trkpt>
      <trkpt lat="43.45486" lon="6.43583">
        <ele>233.07</ele>
        <time>2014-03-25T10:31:50Z</time>
      </trkpt>
      <trkpt lat="43.4548" lon="6.43607">
        <ele>231.88</ele>
        <time>2014-03-25T10:32:16Z</time>
      </trkpt>
      <trkpt lat="43.45477" lon="6.43633">
        <ele>232.75</ele>
        <time>2014-03-25T10:32:48Z</time>
      </trkpt>
      <trkpt lat="43.45472" lon="6.43659">
        <ele>233.46</ele>
        <time>2014-03-25T10:33:14Z</time>
      </trkpt>
      <trkpt lat="43.45472" lon="6.43659">
        <ele>233.46</ele>
        <time>2014-03-25T10:33:14Z</time>
      </trkpt>
      <trkpt lat="43.45486" lon="6.43676">
        <ele>238.22</ele>
        <time>2014-03-25T10:34:31Z</time>
      </trkpt>
      <trkpt lat="43.4549" lon="6.43701">
        <ele>239.91</ele>
        <time>2014-03-25T10:34:53Z</time>
      </trkpt>
      <trkpt lat="43.45498" lon="6.43724">
        <ele>241.93</ele>
        <time>2014-03-25T10:35:17Z</time>
      </trkpt>
      <trkpt lat="43.45507" lon="6.43745">
        <ele>243.62</ele>
        <time>2014-03-25T10:35:37Z</time>
      </trkpt>
      <trkpt lat="43.45503" lon="6.4377">
        <ele>246.84</ele>
        <time>2014-03-25T10:36:05Z</time>
      </trkpt>
      <trkpt lat="43.45496" lon="6.43794">
        <ele>247.28</ele>
        <time>2014-03-25T10:36:33Z</time>
      </trkpt>
      <trkpt lat="43.45492" lon="6.4382">
        <ele>245.99</ele>
        <time>2014-03-25T10:36:57Z</time>
      </trkpt>
      <trkpt lat="43.45492" lon="6.4382">
        <ele>245.99</ele>
        <time>2014-03-25T10:36:57Z</time>
      </trkpt>
      <trkpt lat="43.45475" lon="6.43832">
        <ele>244.62</ele>
        <time>2014-03-25T10:37:23Z</time>
      </trkpt>
      <trkpt lat="43.4548" lon="6.43832">
        <ele>246.42</ele>
        <time>2014-03-25T10:38:01Z</time>
      </trkpt>
      <trkpt lat="43.45474" lon="6.43833">
        <ele>247.23</ele>
        <time>2014-03-25T10:38:29Z</time>
      </trkpt>
      <trkpt lat="43.45474" lon="6.43836">
        <ele>247.63</ele>
        <time>2014-03-25T10:39:21Z</time>
      </trkpt>
      <trkpt lat="43.45477" lon="6.43832">
        <ele>249.42</ele>
        <time>2014-03-25T10:40:43Z</time>
      </trkpt>
      <trkpt lat="43.45488" lon="6.43829">
        <ele>252</ele>
        <time>2014-03-25T10:42:31Z</time>
      </trkpt>
      <trkpt lat="43.45494" lon="6.43804">
        <ele>251.7</ele>
        <time>2014-03-25T10:43:09Z</time>
      </trkpt>
      <trkpt lat="43.45494" lon="6.43804">
        <ele>251.7</ele>
        <time>2014-03-25T10:43:09Z</time>
      </trkpt>
      <trkpt lat="43.45505" lon="6.43783">
        <ele>252.49</ele>
        <time>2014-03-25T10:43:27Z</time>
      </trkpt>
      <trkpt lat="43.45516" lon="6.43763">
        <ele>251.35</ele>
        <time>2014-03-25T10:43:51Z</time>
      </trkpt>
      <trkpt lat="43.45531" lon="6.43749">
        <ele>249.8</ele>
        <time>2014-03-25T10:44:21Z</time>
      </trkpt>
      <trkpt lat="43.45548" lon="6.4374">
        <ele>248.03</ele>
        <time>2014-03-25T10:45:05Z</time>
      </trkpt>
      <trkpt lat="43.45567" lon="6.43732">
        <ele>245.71</ele>
        <time>2014-03-25T10:45:27Z</time>
      </trkpt>
      <trkpt lat="43.45585" lon="6.43728">
        <ele>244.61</ele>
        <time>2014-03-25T10:45:47Z</time>
      </trkpt>
      <trkpt lat="43.45604" lon="6.43725">
        <ele>241.87</ele>
        <time>2014-03-25T10:46:13Z</time>
      </trkpt>
      <trkpt lat="43.45604" lon="6.43725">
        <ele>241.87</ele>
        <time>2014-03-25T10:46:13Z</time>
      </trkpt>
      <trkpt lat="43.45621" lon="6.43722">
        <ele>239.58</ele>
        <time>2014-03-25T10:46:33Z</time>
      </trkpt>
      <trkpt lat="43.45639" lon="6.43725">
        <ele>237.85</ele>
        <time>2014-03-25T10:46:55Z</time>
      </trkpt>
      <trkpt lat="43.45657" lon="6.43731">
        <ele>236.07</ele>
        <time>2014-03-25T10:47:17Z</time>
      </trkpt>
      <trkpt lat="43.45676" lon="6.4374">
        <ele>233.92</ele>
        <time>2014-03-25T10:47:41Z</time>
      </trkpt>
      <trkpt lat="43.4569" lon="6.43756">
        <ele>232.6</ele>
        <time>2014-03-25T10:48:01Z</time>
      </trkpt>
      <trkpt lat="43.45704" lon="6.43773">
        <ele>232.14</ele>
        <time>2014-03-25T10:48:21Z</time>
      </trkpt>
      <trkpt lat="43.45715" lon="6.43794">
        <ele>229.98</ele>
        <time>2014-03-25T10:48:45Z</time>
      </trkpt>
      <trkpt lat="43.45725" lon="6.43815">
        <ele>226.81</ele>
        <time>2014-03-25T10:49:07Z</time>
      </trkpt>
      <trkpt lat="43.45725" lon="6.43815">
        <ele>226.81</ele>
        <time>2014-03-25T10:49:07Z</time>
      </trkpt>
      <trkpt lat="43.45732" lon="6.43839">
        <ele>223.02</ele>
        <time>2014-03-25T10:49:31Z</time>
      </trkpt>
      <trkpt lat="43.45739" lon="6.43862">
        <ele>221.13</ele>
        <time>2014-03-25T10:49:49Z</time>
      </trkpt>
      <trkpt lat="43.45747" lon="6.43886">
        <ele>219.09</ele>
        <time>2014-03-25T10:50:11Z</time>
      </trkpt>
      <trkpt lat="43.4575" lon="6.43911">
        <ele>215.85</ele>
        <time>2014-03-25T10:50:31Z</time>
      </trkpt>
      <trkpt lat="43.45753" lon="6.43935">
        <ele>213</ele>
        <time>2014-03-25T10:50:53Z</time>
      </trkpt>
      <trkpt lat="43.45747" lon="6.43959">
        <ele>208.28</ele>
        <time>2014-03-25T10:51:15Z</time>
      </trkpt>
      <trkpt lat="43.45743" lon="6.43986">
        <ele>205.96</ele>
        <time>2014-03-25T10:51:35Z</time>
      </trkpt>
      <trkpt lat="43.45744" lon="6.44011">
        <ele>202.69</ele>
        <time>2014-03-25T10:51:57Z</time>
      </trkpt>
      <trkpt lat="43.45744" lon="6.44011">
        <ele>202.69</ele>
        <time>2014-03-25T10:51:57Z</time>
      </trkpt>
      <trkpt lat="43.45752" lon="6.44035">
        <ele>200.13</ele>
        <time>2014-03-25T10:52:19Z</time>
      </trkpt>
      <trkpt lat="43.45761" lon="6.44057">
        <ele>199.57</ele>
        <time>2014-03-25T10:52:37Z</time>
      </trkpt>
      <trkpt lat="43.4577" lon="6.44081">
        <ele>198.19</ele>
        <time>2014-03-25T10:52:59Z</time>
      </trkpt>
      <trkpt lat="43.45785" lon="6.44096">
        <ele>196.71</ele>
        <time>2014-03-25T10:53:19Z</time>
      </trkpt>
      <trkpt lat="43.45805" lon="6.44097">
        <ele>194.01</ele>
        <time>2014-03-25T10:53:43Z</time>
      </trkpt>
      <trkpt lat="43.45825" lon="6.44094">
        <ele>193.03</ele>
        <time>2014-03-25T10:54:01Z</time>
      </trkpt>
      <trkpt lat="43.45844" lon="6.44096">
        <ele>191.6</ele>
        <time>2014-03-25T10:54:21Z</time>
      </trkpt>
      <trkpt lat="43.45863" lon="6.44094">
        <ele>191.78</ele>
        <time>2014-03-25T10:54:41Z</time>
      </trkpt>
      <trkpt lat="43.4588" lon="6.44085">
        <ele>187.67</ele>
        <time>2014-03-25T10:55:03Z</time>
      </trkpt>
      <trkpt lat="43.4588" lon="6.44085">
        <ele>187.67</ele>
        <time>2014-03-25T10:55:03Z</time>
      </trkpt>
      <trkpt lat="43.45897" lon="6.44078">
        <ele>183.17</ele>
        <time>2014-03-25T10:55:25Z</time>
      </trkpt>
      <trkpt lat="43.45916" lon="6.44078">
        <ele>182.47</ele>
        <time>2014-03-25T10:55:45Z</time>
      </trkpt>
      <trkpt lat="43.45928" lon="6.4406">
        <ele>181.69</ele>
        <time>2014-03-25T10:56:05Z</time>
      </trkpt>
      <trkpt lat="43.45941" lon="6.44042">
        <ele>180.33</ele>
        <time>2014-03-25T10:56:21Z</time>
      </trkpt>
      <trkpt lat="43.45954" lon="6.44023">
        <ele>179.96</ele>
        <time>2014-03-25T10:56:41Z</time>
      </trkpt>
      <trkpt lat="43.45969" lon="6.44007">
        <ele>176.56</ele>
        <time>2014-03-25T10:57:01Z</time>
      </trkpt>
      <trkpt lat="43.45982" lon="6.43989">
        <ele>174.86</ele>
        <time>2014-03-25T10:57:21Z</time>
      </trkpt>
      <trkpt lat="43.45992" lon="6.43966">
        <ele>175.46</ele>
        <time>2014-03-25T10:57:45Z</time>
      </trkpt>
      <trkpt lat="43.45991" lon="6.43941">
        <ele>174.96</ele>
        <time>2014-03-25T10:58:07Z</time>
      </trkpt>
      <trkpt lat="43.45991" lon="6.43941">
        <ele>174.96</ele>
        <time>2014-03-25T10:58:07Z</time>
      </trkpt>
      <trkpt lat="43.45982" lon="6.4395">
        <ele>177.5</ele>
        <time>2014-03-25T10:59:08Z</time>
      </trkpt>
      <trkpt lat="43.45993" lon="6.43929">
        <ele>174.61</ele>
        <time>2014-03-25T10:59:36Z</time>
      </trkpt>
      <trkpt lat="43.45999" lon="6.43915">
        <ele>175.9</ele>
        <time>2014-03-25T11:00:10Z</time>
      </trkpt>
      <trkpt lat="43.46016" lon="6.43901">
        <ele>179.37</ele>
        <time>2014-03-25T11:00:28Z</time>
      </trkpt>
      <trkpt lat="43.4603" lon="6.43886">
        <ele>182.69</ele>
        <time>2014-03-25T11:00:46Z</time>
      </trkpt>
      <trkpt lat="43.4603" lon="6.43886">
        <ele>182.69</ele>
        <time>2014-03-25T11:00:46Z</time>
      </trkpt>
      <trkpt lat="43.46041" lon="6.43878">
        <ele>184.01</ele>
        <time>2014-03-25T11:01:50Z</time>
      </trkpt>
      <trkpt lat="43.46031" lon="6.43872">
        <ele>184.33</ele>
        <time>2014-03-25T11:02:10Z</time>
      </trkpt>
      <trkpt lat="43.46042" lon="6.43879">
        <ele>184.88</ele>
        <time>2014-03-25T11:03:04Z</time>
      </trkpt>
      <trkpt lat="43.46047" lon="6.43855">
        <ele>188</ele>
        <time>2014-03-25T11:03:56Z</time>
      </trkpt>
      <trkpt lat="43.46047" lon="6.43855">
        <ele>188</ele>
        <time>2014-03-25T11:03:56Z</time>
      </trkpt>
      <trkpt lat="43.46059" lon="6.43834">
        <ele>186.77</ele>
        <time>2014-03-25T11:04:24Z</time>
      </trkpt>
      <trkpt lat="43.46072" lon="6.43812">
        <ele>186.03</ele>
        <time>2014-03-25T11:04:46Z</time>
      </trkpt>
      <trkpt lat="43.46084" lon="6.43791">
        <ele>186.46</ele>
        <time>2014-03-25T11:05:10Z</time>
      </trkpt>
      <trkpt lat="43.46089" lon="6.43766">
        <ele>188.49</ele>
        <time>2014-03-25T11:05:26Z</time>
      </trkpt>
      <trkpt lat="43.46106" lon="6.43754">
        <ele>189.64</ele>
        <time>2014-03-25T11:05:50Z</time>
      </trkpt>
      <trkpt lat="43.46122" lon="6.4374">
        <ele>191.43</ele>
        <time>2014-03-25T11:06:12Z</time>
      </trkpt>
      <trkpt lat="43.46122" lon="6.4374">
        <ele>191.43</ele>
        <time>2014-03-25T11:06:12Z</time>
      </trkpt>
      <trkpt lat="43.46134" lon="6.43732">
        <ele>194.08</ele>
        <time>2014-03-25T11:07:22Z</time>
      </trkpt>
      <trkpt lat="43.4615" lon="6.43743">
        <ele>194.06</ele>
        <time>2014-03-25T11:08:28Z</time>
      </trkpt>
      <trkpt lat="43.4616" lon="6.43765">
        <ele>194.29</ele>
        <time>2014-03-25T11:08:50Z</time>
      </trkpt>
      <trkpt lat="43.4617" lon="6.43788">
        <ele>196.05</ele>
        <time>2014-03-25T11:09:08Z</time>
      </trkpt>
      <trkpt lat="43.46188" lon="6.43792">
        <ele>197.26</ele>
        <time>2014-03-25T11:09:32Z</time>
      </trkpt>
      <trkpt lat="43.46206" lon="6.43783">
        <ele>198.24</ele>
        <time>2014-03-25T11:10:04Z</time>
      </trkpt>
      <trkpt lat="43.46206" lon="6.43783">
        <ele>198.24</ele>
        <time>2014-03-25T11:10:04Z</time>
      </trkpt>
      <trkpt lat="43.46214" lon="6.43757">
        <ele>199.55</ele>
        <time>2014-03-25T11:10:26Z</time>
      </trkpt>
      <trkpt lat="43.46227" lon="6.43735">
        <ele>199.44</ele>
        <time>2014-03-25T11:10:46Z</time>
      </trkpt>
      <trkpt lat="43.46235" lon="6.43711">
        <ele>200.24</ele>
        <time>2014-03-25T11:11:02Z</time>
      </trkpt>
      <trkpt lat="43.46245" lon="6.43689">
        <ele>204.05</ele>
        <time>2014-03-25T11:11:22Z</time>
      </trkpt>
      <trkpt lat="43.46255" lon="6.43667">
        <ele>205.46</ele>
        <time>2014-03-25T11:11:40Z</time>
      </trkpt>
      <trkpt lat="43.46262" lon="6.43642">
        <ele>205.76</ele>
        <time>2014-03-25T11:12:00Z</time>
      </trkpt>
      <trkpt lat="43.46275" lon="6.43623">
        <ele>206.58</ele>
        <time>2014-03-25T11:12:20Z</time>
      </trkpt>
      <trkpt lat="43.46287" lon="6.43603">
        <ele>207.28</ele>
        <time>2014-03-25T11:12:38Z</time>
      </trkpt>
      <trkpt lat="43.46298" lon="6.43583">
        <ele>207.72</ele>
        <time>2014-03-25T11:12:58Z</time>
      </trkpt>
      <trkpt lat="43.46298" lon="6.43583">
        <ele>207.72</ele>
        <time>2014-03-25T11:12:58Z</time>
      </trkpt>
      <trkpt lat="43.46309" lon="6.43561">
        <ele>208.24</ele>
        <time>2014-03-25T11:13:20Z</time>
      </trkpt>
      <trkpt lat="43.4632" lon="6.43538">
        <ele>208.22</ele>
        <time>2014-03-25T11:13:38Z</time>
      </trkpt>
      <trkpt lat="43.46333" lon="6.43519">
        <ele>207.85</ele>
        <time>2014-03-25T11:13:58Z</time>
      </trkpt>
      <trkpt lat="43.46347" lon="6.43503">
        <ele>208.06</ele>
        <time>2014-03-25T11:14:18Z</time>
      </trkpt>
      <trkpt lat="43.46361" lon="6.43482">
        <ele>208.76</ele>
        <time>2014-03-25T11:14:38Z</time>
      </trkpt>
      <trkpt lat="43.46373" lon="6.43461">
        <ele>207.91</ele>
        <time>2014-03-25T11:15:00Z</time>
      </trkpt>
      <trkpt lat="43.46386" lon="6.43443">
        <ele>207.45</ele>
        <time>2014-03-25T11:15:20Z</time>
      </trkpt>
      <trkpt lat="43.46399" lon="6.43425">
        <ele>207.34</ele>
        <time>2014-03-25T11:15:38Z</time>
      </trkpt>
      <trkpt lat="43.46411" lon="6.43404">
        <ele>207.13</ele>
        <time>2014-03-25T11:16:04Z</time>
      </trkpt>
      <trkpt lat="43.46411" lon="6.43404">
        <ele>207.13</ele>
        <time>2014-03-25T11:16:04Z</time>
      </trkpt>
      <trkpt lat="43.46422" lon="6.43384">
        <ele>205.13</ele>
        <time>2014-03-25T11:16:24Z</time>
      </trkpt>
      <trkpt lat="43.46425" lon="6.43356">
        <ele>204.69</ele>
        <time>2014-03-25T11:16:44Z</time>
      </trkpt>
      <trkpt lat="43.46431" lon="6.43333">
        <ele>204.26</ele>
        <time>2014-03-25T11:17:02Z</time>
      </trkpt>
      <trkpt lat="43.46442" lon="6.43311">
        <ele>206.17</ele>
        <time>2014-03-25T11:17:24Z</time>
      </trkpt>
      <trkpt lat="43.46453" lon="6.43287">
        <ele>208.48</ele>
        <time>2014-03-25T11:17:44Z</time>
      </trkpt>
      <trkpt lat="43.46465" lon="6.43268">
        <ele>208.87</ele>
        <time>2014-03-25T11:18:06Z</time>
      </trkpt>
      <trkpt lat="43.4648" lon="6.43252">
        <ele>209.66</ele>
        <time>2014-03-25T11:18:26Z</time>
      </trkpt>
      <trkpt lat="43.46497" lon="6.43236">
        <ele>209.5</ele>
        <time>2014-03-25T11:18:44Z</time>
      </trkpt>
      <trkpt lat="43.46512" lon="6.4322">
        <ele>209.89</ele>
        <time>2014-03-25T11:19:04Z</time>
      </trkpt>
      <trkpt lat="43.46512" lon="6.4322">
        <ele>209.89</ele>
        <time>2014-03-25T11:19:04Z</time>
      </trkpt>
      <trkpt lat="43.46511" lon="6.43212">
        <ele>209.54</ele>
        <time>2014-03-25T11:19:26Z</time>
      </trkpt>
      <trkpt lat="43.46529" lon="6.43202">
        <ele>209.59</ele>
        <time>2014-03-25T11:19:58Z</time>
      </trkpt>
      <trkpt lat="43.46548" lon="6.43201">
        <ele>209.78</ele>
        <time>2014-03-25T11:20:16Z</time>
      </trkpt>
      <trkpt lat="43.46568" lon="6.43199">
        <ele>210.39</ele>
        <time>2014-03-25T11:20:34Z</time>
      </trkpt>
      <trkpt lat="43.46587" lon="6.43195">
        <ele>210.07</ele>
        <time>2014-03-25T11:20:50Z</time>
      </trkpt>
      <trkpt lat="43.46605" lon="6.43192">
        <ele>207.64</ele>
        <time>2014-03-25T11:21:10Z</time>
      </trkpt>
      <trkpt lat="43.46622" lon="6.43183">
        <ele>205.56</ele>
        <time>2014-03-25T11:21:40Z</time>
      </trkpt>
      <trkpt lat="43.46636" lon="6.43165">
        <ele>206.13</ele>
        <time>2014-03-25T11:22:16Z</time>
      </trkpt>
      <trkpt lat="43.46636" lon="6.43165">
        <ele>206.13</ele>
        <time>2014-03-25T11:22:16Z</time>
      </trkpt>
      <trkpt lat="43.46654" lon="6.43155">
        <ele>208.44</ele>
        <time>2014-03-25T11:22:38Z</time>
      </trkpt>
      <trkpt lat="43.46671" lon="6.43145">
        <ele>211.12</ele>
        <time>2014-03-25T11:23:02Z</time>
      </trkpt>
      <trkpt lat="43.46675" lon="6.43119">
        <ele>210.94</ele>
        <time>2014-03-25T11:23:38Z</time>
      </trkpt>
      <trkpt lat="43.46672" lon="6.43093">
        <ele>210.14</ele>
        <time>2014-03-25T11:24:02Z</time>
      </trkpt>
      <trkpt lat="43.46668" lon="6.43067">
        <ele>210.74</ele>
        <time>2014-03-25T11:24:23Z</time>
      </trkpt>
      <trkpt lat="43.4667" lon="6.43041">
        <ele>211.16</ele>
        <time>2014-03-25T11:24:43Z</time>
      </trkpt>
      <trkpt lat="43.46678" lon="6.43019">
        <ele>212.65</ele>
        <time>2014-03-25T11:25:03Z</time>
      </trkpt>
      <trkpt lat="43.46678" lon="6.43019">
        <ele>212.65</ele>
        <time>2014-03-25T11:25:03Z</time>
      </trkpt>
      <trkpt lat="43.46694" lon="6.43004">
        <ele>212.75</ele>
        <time>2014-03-25T11:25:27Z</time>
      </trkpt>
      <trkpt lat="43.4671" lon="6.42989">
        <ele>213.41</ele>
        <time>2014-03-25T11:25:47Z</time>
      </trkpt>
      <trkpt lat="43.4673" lon="6.42986">
        <ele>215.03</ele>
        <time>2014-03-25T11:26:05Z</time>
      </trkpt>
      <trkpt lat="43.46748" lon="6.42984">
        <ele>216.2</ele>
        <time>2014-03-25T11:26:23Z</time>
      </trkpt>
      <trkpt lat="43.46764" lon="6.4297">
        <ele>217.46</ele>
        <time>2014-03-25T11:26:43Z</time>
      </trkpt>
      <trkpt lat="43.46782" lon="6.42962">
        <ele>218.55</ele>
        <time>2014-03-25T11:27:07Z</time>
      </trkpt>
      <trkpt lat="43.46798" lon="6.42948">
        <ele>216.31</ele>
        <time>2014-03-25T11:27:33Z</time>
      </trkpt>
      <trkpt lat="43.46816" lon="6.42939">
        <ele>215.55</ele>
        <time>2014-03-25T11:27:51Z</time>
      </trkpt>
      <trkpt lat="43.46834" lon="6.42933">
        <ele>216.09</ele>
        <time>2014-03-25T11:28:15Z</time>
      </trkpt>
      <trkpt lat="43.46834" lon="6.42933">
        <ele>216.09</ele>
        <time>2014-03-25T11:28:15Z</time>
      </trkpt>
      <trkpt lat="43.46854" lon="6.4293">
        <ele>215.83</ele>
        <time>2014-03-25T11:28:31Z</time>
      </trkpt>
      <trkpt lat="43.46872" lon="6.42928">
        <ele>216.17</ele>
        <time>2014-03-25T11:28:47Z</time>
      </trkpt>
      <trkpt lat="43.46891" lon="6.42924">
        <ele>215.68</ele>
        <time>2014-03-25T11:29:05Z</time>
      </trkpt>
      <trkpt lat="43.4691" lon="6.42929">
        <ele>215.18</ele>
        <time>2014-03-25T11:29:29Z</time>
      </trkpt>
      <trkpt lat="43.4693" lon="6.42931">
        <ele>214.3</ele>
        <time>2014-03-25T11:29:53Z</time>
      </trkpt>
      <trkpt lat="43.46948" lon="6.42921">
        <ele>213.46</ele>
        <time>2014-03-25T11:30:05Z</time>
      </trkpt>
      <trkpt lat="43.46962" lon="6.42904">
        <ele>212.63</ele>
        <time>2014-03-25T11:30:19Z</time>
      </trkpt>
      <trkpt lat="43.46971" lon="6.42882">
        <ele>212.21</ele>
        <time>2014-03-25T11:30:31Z</time>
      </trkpt>
      <trkpt lat="43.46978" lon="6.42856">
        <ele>213.5</ele>
        <time>2014-03-25T11:30:53Z</time>
      </trkpt>
      <trkpt lat="43.46989" lon="6.42834">
        <ele>215.25</ele>
        <time>2014-03-25T11:31:13Z</time>
      </trkpt>
      <trkpt lat="43.46989" lon="6.42834">
        <ele>215.25</ele>
        <time>2014-03-25T11:31:13Z</time>
      </trkpt>
      <trkpt lat="43.47001" lon="6.42814">
        <ele>213.95</ele>
        <time>2014-03-25T11:31:35Z</time>
      </trkpt>
      <trkpt lat="43.47014" lon="6.42795">
        <ele>213.88</ele>
        <time>2014-03-25T11:32:01Z</time>
      </trkpt>
      <trkpt lat="43.4703" lon="6.42779">
        <ele>215.2</ele>
        <time>2014-03-25T11:32:19Z</time>
      </trkpt>
      <trkpt lat="43.47045" lon="6.42763">
        <ele>213.87</ele>
        <time>2014-03-25T11:32:40Z</time>
      </trkpt>
      <trkpt lat="43.47049" lon="6.42739">
        <ele>213.81</ele>
        <time>2014-03-25T11:33:24Z</time>
      </trkpt>
      <trkpt lat="43.47056" lon="6.42743">
        <ele>216.51</ele>
        <time>2014-03-25T11:34:33Z</time>
      </trkpt>
      <trkpt lat="43.47059" lon="6.42736">
        <ele>217.67</ele>
        <time>2014-03-25T11:35:25Z</time>
      </trkpt>
      <trkpt lat="43.47073" lon="6.4272">
        <ele>216.35</ele>
        <time>2014-03-25T11:35:55Z</time>
      </trkpt>
      <trkpt lat="43.47081" lon="6.42696">
        <ele>217.32</ele>
        <time>2014-03-25T11:36:17Z</time>
      </trkpt>
      <trkpt lat="43.47092" lon="6.42676">
        <ele>218.8</ele>
        <time>2014-03-25T11:36:33Z</time>
      </trkpt>
      <trkpt lat="43.47102" lon="6.42654">
        <ele>219.16</ele>
        <time>2014-03-25T11:36:57Z</time>
      </trkpt>
      <trkpt lat="43.47102" lon="6.42654">
        <ele>219.16</ele>
        <time>2014-03-25T11:36:57Z</time>
      </trkpt>
      <trkpt lat="43.47112" lon="6.42633">
        <ele>219.55</ele>
        <time>2014-03-25T11:37:21Z</time>
      </trkpt>
      <trkpt lat="43.47132" lon="6.42631">
        <ele>216.22</ele>
        <time>2014-03-25T11:38:17Z</time>
      </trkpt>
      <trkpt lat="43.47151" lon="6.4263">
        <ele>217.45</ele>
        <time>2014-03-25T11:38:54Z</time>
      </trkpt>
      <trkpt lat="43.47169" lon="6.4263">
        <ele>220.01</ele>
        <time>2014-03-25T11:39:18Z</time>
      </trkpt>
      <trkpt lat="43.47169" lon="6.4263">
        <ele>220.01</ele>
        <time>2014-03-25T11:39:18Z</time>
      </trkpt>
      <trkpt lat="43.47178" lon="6.42631">
        <ele>222.9</ele>
        <time>2014-03-25T11:40:24Z</time>
      </trkpt>
      <trkpt lat="43.47196" lon="6.42641">
        <ele>223.93</ele>
        <time>2014-03-25T11:40:54Z</time>
      </trkpt>
      <trkpt lat="43.47215" lon="6.42643">
        <ele>224.79</ele>
        <time>2014-03-25T11:41:08Z</time>
      </trkpt>
      <trkpt lat="43.47231" lon="6.42632">
        <ele>225.67</ele>
        <time>2014-03-25T11:41:32Z</time>
      </trkpt>
      <trkpt lat="43.47223" lon="6.42642">
        <ele>226</ele>
        <time>2014-03-25T11:42:26Z</time>
      </trkpt>
      <trkpt lat="43.47223" lon="6.42642">
        <ele>226</ele>
        <time>2014-03-25T11:42:26Z</time>
      </trkpt>
      <trkpt lat="43.47223" lon="6.42642">
        <ele>226</ele>
        <time>2014-03-25T11:42:26Z</time>
      </trkpt>
      <trkpt lat="43.47223" lon="6.42642">
        <ele>226</ele>
        <time>2014-03-25T11:42:26Z</time>
      </trkpt>
      <trkpt lat="43.47223" lon="6.42642">
        <ele>226</ele>
        <time>2014-03-25T11:42:26Z</time>
      </trkpt>
      <trkpt lat="43.47223" lon="6.42642">
        <ele>226</ele>
        <time>2014-03-25T11:42:26Z</time>
      </trkpt>
      <trkpt lat="43.47223" lon="6.42642">
        <ele>226</ele>
        <time>2014-03-25T11:42:26Z</time>
      </trkpt>
      <trkpt lat="43.47223" lon="6.42642">
        <ele>226</ele>
        <time>2014-03-25T11:42:26Z</time>
      </trkpt>
      <trkpt lat="43.47223" lon="6.42642">
        <ele>226</ele>
        <time>2014-03-25T11:42:26Z</time>
      </trkpt>
      <trkpt lat="43.47223" lon="6.42642">
        <ele>226</ele>
        <time>2014-03-25T11:42:26Z</time>
      </trkpt>
      <trkpt lat="43.47223" lon="6.42642">
        <ele>226</ele>
        <time>2014-03-25T11:42:26Z</time>
      </trkpt>
      <trkpt lat="43.47223" lon="6.42642">
        <ele>226</ele>
        <time>2014-03-25T11:42:26Z</time>
      </trkpt>
      <trkpt lat="43.47223" lon="6.42642">
        <ele>226</ele>
        <time>2014-03-25T11:42:26Z</time>
      </trkpt>
      <trkpt lat="43.47221" lon="6.42631">
        <ele>233.4</ele>
        <time>2014-03-25T12:19:31Z</time>
      </trkpt>
      <trkpt lat="43.47222" lon="6.42628">
        <ele>233.76</ele>
        <time>2014-03-25T12:19:55Z</time>
      </trkpt>
      <trkpt lat="43.4722" lon="6.42637">
        <ele>234.36</ele>
        <time>2014-03-25T12:20:57Z</time>
      </trkpt>
      <trkpt lat="43.47221" lon="6.4264">
        <ele>233.7</ele>
        <time>2014-03-25T12:21:34Z</time>
      </trkpt>
      <trkpt lat="43.47224" lon="6.4263">
        <ele>232.73</ele>
        <time>2014-03-25T12:23:14Z</time>
      </trkpt>
      <trkpt lat="43.47227" lon="6.42634">
        <ele>232.13</ele>
        <time>2014-03-25T12:24:26Z</time>
      </trkpt>
      <trkpt lat="43.47222" lon="6.42648">
        <ele>233.59</ele>
        <time>2014-03-25T12:25:28Z</time>
      </trkpt>
      <trkpt lat="43.47224" lon="6.42645">
        <ele>232.43</ele>
        <time>2014-03-25T12:26:56Z</time>
      </trkpt>
      <trkpt lat="43.47222" lon="6.42643">
        <ele>231.32</ele>
        <time>2014-03-25T12:27:32Z</time>
      </trkpt>
      <trkpt lat="43.4722" lon="6.42636">
        <ele>232.74</ele>
        <time>2014-03-25T12:28:20Z</time>
      </trkpt>
      <trkpt lat="43.47238" lon="6.42629">
        <ele>235.96</ele>
        <time>2014-03-25T12:28:58Z</time>
      </trkpt>
      <trkpt lat="43.47249" lon="6.42609">
        <ele>234.74</ele>
        <time>2014-03-25T12:29:52Z</time>
      </trkpt>
      <trkpt lat="43.47251" lon="6.42622">
        <ele>231.44</ele>
        <time>2014-03-25T12:30:46Z</time>
      </trkpt>
      <trkpt lat="43.47255" lon="6.42621">
        <ele>230.22</ele>
        <time>2014-03-25T12:31:18Z</time>
      </trkpt>
      <trkpt lat="43.47255" lon="6.42621">
        <ele>230.22</ele>
        <time>2014-03-25T12:31:18Z</time>
      </trkpt>
      <trkpt lat="43.47268" lon="6.42628">
        <ele>230.51</ele>
        <time>2014-03-25T12:31:58Z</time>
      </trkpt>
      <trkpt lat="43.47286" lon="6.42638">
        <ele>230.35</ele>
        <time>2014-03-25T12:32:10Z</time>
      </trkpt>
      <trkpt lat="43.47304" lon="6.42637">
        <ele>227.51</ele>
        <time>2014-03-25T12:32:32Z</time>
      </trkpt>
      <trkpt lat="43.47302" lon="6.42611">
        <ele>225.76</ele>
        <time>2014-03-25T12:33:02Z</time>
      </trkpt>
      <trkpt lat="43.47298" lon="6.42586">
        <ele>224.87</ele>
        <time>2014-03-25T12:33:20Z</time>
      </trkpt>
      <trkpt lat="43.47302" lon="6.42561">
        <ele>223.09</ele>
        <time>2014-03-25T12:33:50Z</time>
      </trkpt>
      <trkpt lat="43.47313" lon="6.42539">
        <ele>222.81</ele>
        <time>2014-03-25T12:34:18Z</time>
      </trkpt>
      <trkpt lat="43.47313" lon="6.42539">
        <ele>222.81</ele>
        <time>2014-03-25T12:34:18Z</time>
      </trkpt>
      <trkpt lat="43.4732" lon="6.42519">
        <ele>221.59</ele>
        <time>2014-03-25T12:34:54Z</time>
      </trkpt>
      <trkpt lat="43.47332" lon="6.425">
        <ele>218.57</ele>
        <time>2014-03-25T12:35:44Z</time>
      </trkpt>
      <trkpt lat="43.47339" lon="6.42486">
        <ele>215.9</ele>
        <time>2014-03-25T12:35:59Z</time>
      </trkpt>
      <trkpt lat="43.47345" lon="6.42462">
        <ele>213.1</ele>
        <time>2014-03-25T12:36:21Z</time>
      </trkpt>
      <trkpt lat="43.47352" lon="6.42439">
        <ele>210.29</ele>
        <time>2014-03-25T12:36:49Z</time>
      </trkpt>
      <trkpt lat="43.47359" lon="6.42415">
        <ele>208.03</ele>
        <time>2014-03-25T12:37:15Z</time>
      </trkpt>
      <trkpt lat="43.47365" lon="6.42391">
        <ele>205.44</ele>
        <time>2014-03-25T12:37:43Z</time>
      </trkpt>
      <trkpt lat="43.4737" lon="6.42365">
        <ele>205.24</ele>
        <time>2014-03-25T12:38:07Z</time>
      </trkpt>
      <trkpt lat="43.47381" lon="6.42343">
        <ele>203.32</ele>
        <time>2014-03-25T12:38:37Z</time>
      </trkpt>
      <trkpt lat="43.47381" lon="6.42343">
        <ele>203.32</ele>
        <time>2014-03-25T12:38:37Z</time>
      </trkpt>
      <trkpt lat="43.47396" lon="6.42328">
        <ele>200.43</ele>
        <time>2014-03-25T12:39:01Z</time>
      </trkpt>
      <trkpt lat="43.47411" lon="6.42315">
        <ele>197.95</ele>
        <time>2014-03-25T12:39:23Z</time>
      </trkpt>
      <trkpt lat="43.47426" lon="6.42299">
        <ele>199.05</ele>
        <time>2014-03-25T12:39:41Z</time>
      </trkpt>
      <trkpt lat="43.47443" lon="6.42287">
        <ele>196.43</ele>
        <time>2014-03-25T12:40:05Z</time>
      </trkpt>
      <trkpt lat="43.4746" lon="6.42278">
        <ele>193.16</ele>
        <time>2014-03-25T12:40:27Z</time>
      </trkpt>
      <trkpt lat="43.47477" lon="6.42267">
        <ele>189.27</ele>
        <time>2014-03-25T12:40:47Z</time>
      </trkpt>
      <trkpt lat="43.47493" lon="6.42255">
        <ele>189.09</ele>
        <time>2014-03-25T12:41:07Z</time>
      </trkpt>
      <trkpt lat="43.47504" lon="6.42234">
        <ele>189.99</ele>
        <time>2014-03-25T12:41:35Z</time>
      </trkpt>
      <trkpt lat="43.47502" lon="6.42208">
        <ele>188.37</ele>
        <time>2014-03-25T12:41:55Z</time>
      </trkpt>
      <trkpt lat="43.47502" lon="6.42208">
        <ele>188.37</ele>
        <time>2014-03-25T12:41:55Z</time>
      </trkpt>
      <trkpt lat="43.47499" lon="6.42183">
        <ele>185.72</ele>
        <time>2014-03-25T12:42:19Z</time>
      </trkpt>
      <trkpt lat="43.47497" lon="6.42157">
        <ele>183.05</ele>
        <time>2014-03-25T12:42:41Z</time>
      </trkpt>
      <trkpt lat="43.47492" lon="6.42131">
        <ele>181.27</ele>
        <time>2014-03-25T12:42:59Z</time>
      </trkpt>
      <trkpt lat="43.47485" lon="6.42107">
        <ele>179.82</ele>
        <time>2014-03-25T12:43:19Z</time>
      </trkpt>
      <trkpt lat="43.47482" lon="6.42081">
        <ele>179.83</ele>
        <time>2014-03-25T12:43:37Z</time>
      </trkpt>
      <trkpt lat="43.47482" lon="6.42055">
        <ele>179.12</ele>
        <time>2014-03-25T12:43:59Z</time>
      </trkpt>
      <trkpt lat="43.4748" lon="6.42031">
        <ele>178.47</ele>
        <time>2014-03-25T12:44:17Z</time>
      </trkpt>
      <trkpt lat="43.4748" lon="6.42005">
        <ele>176.88</ele>
        <time>2014-03-25T12:44:41Z</time>
      </trkpt>
      <trkpt lat="43.4748" lon="6.42005">
        <ele>176.88</ele>
        <time>2014-03-25T12:44:41Z</time>
      </trkpt>
      <trkpt lat="43.47484" lon="6.41978">
        <ele>173.94</ele>
        <time>2014-03-25T12:45:05Z</time>
      </trkpt>
      <trkpt lat="43.47491" lon="6.41953">
        <ele>171.51</ele>
        <time>2014-03-25T12:45:29Z</time>
      </trkpt>
      <trkpt lat="43.47498" lon="6.41929">
        <ele>169.01</ele>
        <time>2014-03-25T12:45:49Z</time>
      </trkpt>
      <trkpt lat="43.47506" lon="6.41954">
        <ele>166.2</ele>
        <time>2014-03-25T12:46:32Z</time>
      </trkpt>
      <trkpt lat="43.47502" lon="6.4198">
        <ele>164.46</ele>
        <time>2014-03-25T12:46:54Z</time>
      </trkpt>
      <trkpt lat="43.47504" lon="6.42005">
        <ele>163.05</ele>
        <time>2014-03-25T12:47:18Z</time>
      </trkpt>
      <trkpt lat="43.4751" lon="6.4203">
        <ele>161.62</ele>
        <time>2014-03-25T12:47:38Z</time>
      </trkpt>
      <trkpt lat="43.4751" lon="6.4203">
        <ele>161.62</ele>
        <time>2014-03-25T12:47:38Z</time>
      </trkpt>
      <trkpt lat="43.47518" lon="6.42055">
        <ele>159.76</ele>
        <time>2014-03-25T12:48:02Z</time>
      </trkpt>
      <trkpt lat="43.47518" lon="6.42027">
        <ele>158.43</ele>
        <time>2014-03-25T12:48:34Z</time>
      </trkpt>
      <trkpt lat="43.4752" lon="6.42002">
        <ele>158.97</ele>
        <time>2014-03-25T12:48:52Z</time>
      </trkpt>
      <trkpt lat="43.47528" lon="6.41979">
        <ele>156.96</ele>
        <time>2014-03-25T12:49:18Z</time>
      </trkpt>
      <trkpt lat="43.47537" lon="6.41955">
        <ele>153.65</ele>
        <time>2014-03-25T12:49:42Z</time>
      </trkpt>
      <trkpt lat="43.47546" lon="6.41931">
        <ele>150.83</ele>
        <time>2014-03-25T12:50:06Z</time>
      </trkpt>
      <trkpt lat="43.47557" lon="6.41909">
        <ele>149.54</ele>
        <time>2014-03-25T12:50:24Z</time>
      </trkpt>
      <trkpt lat="43.47563" lon="6.41884">
        <ele>147.3</ele>
        <time>2014-03-25T12:50:44Z</time>
      </trkpt>
      <trkpt lat="43.47563" lon="6.41884">
        <ele>147.3</ele>
        <time>2014-03-25T12:50:44Z</time>
      </trkpt>
      <trkpt lat="43.47562" lon="6.41858">
        <ele>145.21</ele>
        <time>2014-03-25T12:51:08Z</time>
      </trkpt>
      <trkpt lat="43.47555" lon="6.41834">
        <ele>144.56</ele>
        <time>2014-03-25T12:51:24Z</time>
      </trkpt>
      <trkpt lat="43.4755" lon="6.4181">
        <ele>144.12</ele>
        <time>2014-03-25T12:51:48Z</time>
      </trkpt>
      <trkpt lat="43.47536" lon="6.41793">
        <ele>143.46</ele>
        <time>2014-03-25T12:52:06Z</time>
      </trkpt>
      <trkpt lat="43.4752" lon="6.4178">
        <ele>141.65</ele>
        <time>2014-03-25T12:52:24Z</time>
      </trkpt>
      <trkpt lat="43.47507" lon="6.41762">
        <ele>139.71</ele>
        <time>2014-03-25T12:52:42Z</time>
      </trkpt>
      <trkpt lat="43.47496" lon="6.41743">
        <ele>137.97</ele>
        <time>2014-03-25T12:53:00Z</time>
      </trkpt>
      <trkpt lat="43.47482" lon="6.41724">
        <ele>137.22</ele>
        <time>2014-03-25T12:53:26Z</time>
      </trkpt>
      <trkpt lat="43.47467" lon="6.41709">
        <ele>135.97</ele>
        <time>2014-03-25T12:53:48Z</time>
      </trkpt>
      <trkpt lat="43.47467" lon="6.41709">
        <ele>135.97</ele>
        <time>2014-03-25T12:53:48Z</time>
      </trkpt>
      <trkpt lat="43.47455" lon="6.41689">
        <ele>135.26</ele>
        <time>2014-03-25T12:54:10Z</time>
      </trkpt>
      <trkpt lat="43.47446" lon="6.41673">
        <ele>135.56</ele>
        <time>2014-03-25T12:55:19Z</time>
      </trkpt>
      <trkpt lat="43.47443" lon="6.41669">
        <ele>136.91</ele>
        <time>2014-03-25T12:57:17Z</time>
      </trkpt>
      <trkpt lat="43.4744" lon="6.41673">
        <ele>136.47</ele>
        <time>2014-03-25T12:58:03Z</time>
      </trkpt>
      <trkpt lat="43.47428" lon="6.41665">
        <ele>134.83</ele>
        <time>2014-03-25T12:59:01Z</time>
      </trkpt>
      <trkpt lat="43.47408" lon="6.4167">
        <ele>133.53</ele>
        <time>2014-03-25T12:59:45Z</time>
      </trkpt>
      <trkpt lat="43.47408" lon="6.4167">
        <ele>133.53</ele>
        <time>2014-03-25T12:59:45Z</time>
      </trkpt>
      <trkpt lat="43.47389" lon="6.41674">
        <ele>134.37</ele>
        <time>2014-03-25T13:00:19Z</time>
      </trkpt>
      <trkpt lat="43.47371" lon="6.41683">
        <ele>134.04</ele>
        <time>2014-03-25T13:00:35Z</time>
      </trkpt>
      <trkpt lat="43.47352" lon="6.41685">
        <ele>133.38</ele>
        <time>2014-03-25T13:00:55Z</time>
      </trkpt>
      <trkpt lat="43.47334" lon="6.41689">
        <ele>132.3</ele>
        <time>2014-03-25T13:01:13Z</time>
      </trkpt>
      <trkpt lat="43.47315" lon="6.41691">
        <ele>130.35</ele>
        <time>2014-03-25T13:01:33Z</time>
      </trkpt>
      <trkpt lat="43.47297" lon="6.41692">
        <ele>130.12</ele>
        <time>2014-03-25T13:01:51Z</time>
      </trkpt>
      <trkpt lat="43.47278" lon="6.41693">
        <ele>130.52</ele>
        <time>2014-03-25T13:02:13Z</time>
      </trkpt>
      <trkpt lat="43.4726" lon="6.41698">
        <ele>131</ele>
        <time>2014-03-25T13:02:29Z</time>
      </trkpt>
      <trkpt lat="43.47242" lon="6.41705">
        <ele>130.11</ele>
        <time>2014-03-25T13:02:47Z</time>
      </trkpt>
      <trkpt lat="43.47242" lon="6.41705">
        <ele>130.11</ele>
        <time>2014-03-25T13:02:47Z</time>
      </trkpt>
      <trkpt lat="43.47222" lon="6.41704">
        <ele>129.55</ele>
        <time>2014-03-25T13:03:07Z</time>
      </trkpt>
      <trkpt lat="43.47203" lon="6.41704">
        <ele>131.39</ele>
        <time>2014-03-25T13:03:27Z</time>
      </trkpt>
      <trkpt lat="43.47185" lon="6.41701">
        <ele>131.74</ele>
        <time>2014-03-25T13:03:45Z</time>
      </trkpt>
      <trkpt lat="43.47165" lon="6.41697">
        <ele>130.49</ele>
        <time>2014-03-25T13:04:05Z</time>
      </trkpt>
      <trkpt lat="43.47148" lon="6.4169">
        <ele>130.56</ele>
        <time>2014-03-25T13:04:21Z</time>
      </trkpt>
      <trkpt lat="43.47129" lon="6.41684">
        <ele>130.97</ele>
        <time>2014-03-25T13:04:41Z</time>
      </trkpt>
      <trkpt lat="43.4711" lon="6.41674">
        <ele>133.95</ele>
        <time>2014-03-25T13:05:23Z</time>
      </trkpt>
      <trkpt lat="43.47092" lon="6.41667">
        <ele>133.27</ele>
        <time>2014-03-25T13:05:39Z</time>
      </trkpt>
      <trkpt lat="43.47076" lon="6.41654">
        <ele>130.17</ele>
        <time>2014-03-25T13:05:59Z</time>
      </trkpt>
      <trkpt lat="43.47076" lon="6.41654">
        <ele>130.17</ele>
        <time>2014-03-25T13:05:59Z</time>
      </trkpt>
      <trkpt lat="43.47065" lon="6.41633">
        <ele>129.97</ele>
        <time>2014-03-25T13:06:15Z</time>
      </trkpt>
      <trkpt lat="43.47057" lon="6.4161">
        <ele>129.11</ele>
        <time>2014-03-25T13:06:39Z</time>
      </trkpt>
      <trkpt lat="43.47049" lon="6.41585">
        <ele>127.73</ele>
        <time>2014-03-25T13:07:01Z</time>
      </trkpt>
      <trkpt lat="43.47035" lon="6.41569">
        <ele>126.4</ele>
        <time>2014-03-25T13:07:27Z</time>
      </trkpt>
      <trkpt lat="43.47024" lon="6.41591">
        <ele>125.89</ele>
        <time>2014-03-25T13:07:43Z</time>
      </trkpt>
      <trkpt lat="43.4702" lon="6.41616">
        <ele>125.64</ele>
        <time>2014-03-25T13:07:59Z</time>
      </trkpt>
      <trkpt lat="43.47012" lon="6.41639">
        <ele>124.3</ele>
        <time>2014-03-25T13:08:19Z</time>
      </trkpt>
      <trkpt lat="43.47006" lon="6.41664">
        <ele>121.32</ele>
        <time>2014-03-25T13:08:45Z</time>
      </trkpt>
      <trkpt lat="43.47006" lon="6.41664">
        <ele>121.32</ele>
        <time>2014-03-25T13:08:45Z</time>
      </trkpt>
      <trkpt lat="43.46999" lon="6.41688">
        <ele>121.95</ele>
        <time>2014-03-25T13:09:07Z</time>
      </trkpt>
      <trkpt lat="43.47003" lon="6.41714">
        <ele>121.64</ele>
        <time>2014-03-25T13:09:25Z</time>
      </trkpt>
      <trkpt lat="43.47008" lon="6.41738">
        <ele>119.5</ele>
        <time>2014-03-25T13:09:45Z</time>
      </trkpt>
      <trkpt lat="43.47008" lon="6.41763">
        <ele>118.41</ele>
        <time>2014-03-25T13:10:03Z</time>
      </trkpt>
      <trkpt lat="43.4699" lon="6.41759">
        <ele>120.13</ele>
        <time>2014-03-25T13:10:23Z</time>
      </trkpt>
      <trkpt lat="43.46972" lon="6.41767">
        <ele>122.59</ele>
        <time>2014-03-25T13:11:22Z</time>
      </trkpt>
      <trkpt lat="43.46968" lon="6.41776">
        <ele>123.07</ele>
        <time>2014-03-25T13:12:16Z</time>
      </trkpt>
      <trkpt lat="43.46964" lon="6.41803">
        <ele>127.6</ele>
        <time>2014-03-25T13:12:50Z</time>
      </trkpt>
      <trkpt lat="43.46963" lon="6.4183">
        <ele>129.11</ele>
        <time>2014-03-25T13:13:18Z</time>
      </trkpt>
      <trkpt lat="43.46957" lon="6.41854">
        <ele>130.25</ele>
        <time>2014-03-25T13:13:46Z</time>
      </trkpt>
      <trkpt lat="43.46946" lon="6.41877">
        <ele>132.4</ele>
        <time>2014-03-25T13:14:04Z</time>
      </trkpt>
      <trkpt lat="43.46935" lon="6.41897">
        <ele>132.69</ele>
        <time>2014-03-25T13:14:28Z</time>
      </trkpt>
      <trkpt lat="43.4692" lon="6.41916">
        <ele>132.32</ele>
        <time>2014-03-25T13:14:46Z</time>
      </trkpt>
      <trkpt lat="43.4692" lon="6.41916">
        <ele>132.32</ele>
        <time>2014-03-25T13:14:46Z</time>
      </trkpt>
      <trkpt lat="43.46904" lon="6.41932">
        <ele>131.85</ele>
        <time>2014-03-25T13:15:06Z</time>
      </trkpt>
      <trkpt lat="43.46897" lon="6.41956">
        <ele>131.28</ele>
        <time>2014-03-25T13:15:28Z</time>
      </trkpt>
      <trkpt lat="43.46899" lon="6.41959">
        <ele>129.27</ele>
        <time>2014-03-25T13:16:17Z</time>
      </trkpt>
      <trkpt lat="43.46889" lon="6.4198">
        <ele>126.04</ele>
        <time>2014-03-25T13:17:07Z</time>
      </trkpt>
      <trkpt lat="43.46871" lon="6.41982">
        <ele>125.08</ele>
        <time>2014-03-25T13:17:29Z</time>
      </trkpt>
      <trkpt lat="43.46855" lon="6.41996">
        <ele>125.52</ele>
        <time>2014-03-25T13:17:53Z</time>
      </trkpt>
      <trkpt lat="43.46855" lon="6.41996">
        <ele>125.52</ele>
        <time>2014-03-25T13:17:53Z</time>
      </trkpt>
      <trkpt lat="43.4684" lon="6.42011">
        <ele>125.5</ele>
        <time>2014-03-25T13:18:17Z</time>
      </trkpt>
      <trkpt lat="43.46823" lon="6.42025">
        <ele>127.24</ele>
        <time>2014-03-25T13:18:33Z</time>
      </trkpt>
      <trkpt lat="43.46807" lon="6.42041">
        <ele>129.45</ele>
        <time>2014-03-25T13:18:53Z</time>
      </trkpt>
      <trkpt lat="43.46791" lon="6.42055">
        <ele>127.6</ele>
        <time>2014-03-25T13:19:15Z</time>
      </trkpt>
      <trkpt lat="43.46774" lon="6.42063">
        <ele>123.89</ele>
        <time>2014-03-25T13:19:37Z</time>
      </trkpt>
      <trkpt lat="43.46767" lon="6.42086">
        <ele>117.84</ele>
        <time>2014-03-25T13:20:05Z</time>
      </trkpt>
      <trkpt lat="43.46763" lon="6.42112">
        <ele>117.36</ele>
        <time>2014-03-25T13:20:23Z</time>
      </trkpt>
      <trkpt lat="43.4676" lon="6.42138">
        <ele>117.48</ele>
        <time>2014-03-25T13:20:40Z</time>
      </trkpt>
      <trkpt lat="43.4676" lon="6.42138">
        <ele>117.48</ele>
        <time>2014-03-25T13:20:40Z</time>
      </trkpt>
      <trkpt lat="43.46742" lon="6.42141">
        <ele>118.45</ele>
        <time>2014-03-25T13:21:02Z</time>
      </trkpt>
      <trkpt lat="43.46727" lon="6.42125">
        <ele>117.93</ele>
        <time>2014-03-25T13:21:24Z</time>
      </trkpt>
      <trkpt lat="43.46712" lon="6.42108">
        <ele>118.06</ele>
        <time>2014-03-25T13:21:46Z</time>
      </trkpt>
      <trkpt lat="43.46695" lon="6.42098">
        <ele>118.06</ele>
        <time>2014-03-25T13:22:02Z</time>
      </trkpt>
      <trkpt lat="43.46676" lon="6.4209">
        <ele>116.05</ele>
        <time>2014-03-25T13:22:34Z</time>
      </trkpt>
      <trkpt lat="43.46661" lon="6.42076">
        <ele>118.23</ele>
        <time>2014-03-25T13:23:10Z</time>
      </trkpt>
      <trkpt lat="43.46642" lon="6.4207">
        <ele>119.18</ele>
        <time>2014-03-25T13:23:36Z</time>
      </trkpt>
      <trkpt lat="43.46623" lon="6.42065">
        <ele>121.52</ele>
        <time>2014-03-25T13:23:58Z</time>
      </trkpt>
      <trkpt lat="43.46623" lon="6.42065">
        <ele>121.52</ele>
        <time>2014-03-25T13:23:58Z</time>
      </trkpt>
      <trkpt lat="43.46604" lon="6.42071">
        <ele>122.54</ele>
        <time>2014-03-25T13:24:36Z</time>
      </trkpt>
      <trkpt lat="43.46585" lon="6.42071">
        <ele>123.04</ele>
        <time>2014-03-25T13:25:02Z</time>
      </trkpt>
      <trkpt lat="43.46573" lon="6.42058">
        <ele>119.6</ele>
        <time>2014-03-25T13:26:10Z</time>
      </trkpt>
      <trkpt lat="43.46573" lon="6.42058">
        <ele>119.6</ele>
        <time>2014-03-25T13:26:10Z</time>
      </trkpt>
      <trkpt lat="43.46555" lon="6.42051">
        <ele>118.07</ele>
        <time>2014-03-25T13:27:00Z</time>
      </trkpt>
      <trkpt lat="43.46546" lon="6.42028">
        <ele>115.43</ele>
        <time>2014-03-25T13:27:28Z</time>
      </trkpt>
      <trkpt lat="43.46558" lon="6.4201">
        <ele>114.65</ele>
        <time>2014-03-25T13:27:56Z</time>
      </trkpt>
      <trkpt lat="43.46555" lon="6.42014">
        <ele>110.96</ele>
        <time>2014-03-25T13:31:06Z</time>
      </trkpt>
      <trkpt lat="43.46557" lon="6.4201">
        <ele>111.83</ele>
        <time>2014-03-25T13:31:52Z</time>
      </trkpt>
      <trkpt lat="43.46559" lon="6.42017">
        <ele>107.68</ele>
        <time>2014-03-25T13:39:34Z</time>
      </trkpt>
      <trkpt lat="43.46564" lon="6.42015">
        <ele>107.77</ele>
        <time>2014-03-25T13:40:21Z</time>
      </trkpt>
      <trkpt lat="43.46559" lon="6.42018">
        <ele>108.33</ele>
        <time>2014-03-25T13:42:07Z</time>
      </trkpt>
      <trkpt lat="43.4656" lon="6.42013">
        <ele>109.46</ele>
        <time>2014-03-25T13:43:01Z</time>
      </trkpt>
      <trkpt lat="43.46555" lon="6.42013">
        <ele>110.18</ele>
        <time>2014-03-25T13:43:57Z</time>
      </trkpt>
      <trkpt lat="43.46555" lon="6.42013">
        <ele>110.18</ele>
        <time>2014-03-25T13:43:57Z</time>
      </trkpt>
      <trkpt lat="43.4655" lon="6.42026">
        <ele>111.25</ele>
        <time>2014-03-25T13:45:35Z</time>
      </trkpt>
      <trkpt lat="43.46544" lon="6.42029">
        <ele>111.03</ele>
        <time>2014-03-25T13:48:01Z</time>
      </trkpt>
      <trkpt lat="43.4655" lon="6.42027">
        <ele>111.02</ele>
        <time>2014-03-25T13:49:51Z</time>
      </trkpt>
      <trkpt lat="43.46547" lon="6.4202">
        <ele>111.68</ele>
        <time>2014-03-25T13:51:27Z</time>
      </trkpt>
      <trkpt lat="43.46548" lon="6.42017">
        <ele>110.24</ele>
        <time>2014-03-25T13:53:19Z</time>
      </trkpt>
      <trkpt lat="43.46548" lon="6.42017">
        <ele>110.24</ele>
        <time>2014-03-25T13:53:19Z</time>
      </trkpt>
      <trkpt lat="43.46558" lon="6.42055">
        <ele>114.56</ele>
        <time>2014-03-25T13:54:17Z</time>
      </trkpt>
      <trkpt lat="43.46577" lon="6.42054">
        <ele>115.62</ele>
        <time>2014-03-25T13:54:49Z</time>
      </trkpt>
      <trkpt lat="43.46582" lon="6.42054">
        <ele>116.25</ele>
        <time>2014-03-25T13:55:09Z</time>
      </trkpt>
      <trkpt lat="43.46589" lon="6.42077">
        <ele>118.05</ele>
        <time>2014-03-25T13:55:45Z</time>
      </trkpt>
      <trkpt lat="43.46607" lon="6.42071">
        <ele>118.99</ele>
        <time>2014-03-25T13:56:17Z</time>
      </trkpt>
      <trkpt lat="43.46607" lon="6.42071">
        <ele>118.99</ele>
        <time>2014-03-25T13:56:17Z</time>
      </trkpt>
      <trkpt lat="43.46592" lon="6.42087">
        <ele>120.4</ele>
        <time>2014-03-25T13:57:13Z</time>
      </trkpt>
      <trkpt lat="43.46577" lon="6.42101">
        <ele>121.22</ele>
        <time>2014-03-25T13:57:35Z</time>
      </trkpt>
      <trkpt lat="43.46562" lon="6.42117">
        <ele>122.39</ele>
        <time>2014-03-25T13:57:57Z</time>
      </trkpt>
      <trkpt lat="43.46546" lon="6.42135">
        <ele>122.56</ele>
        <time>2014-03-25T13:58:13Z</time>
      </trkpt>
      <trkpt lat="43.46535" lon="6.42154">
        <ele>124.45</ele>
        <time>2014-03-25T13:58:33Z</time>
      </trkpt>
      <trkpt lat="43.46527" lon="6.42179">
        <ele>125.67</ele>
        <time>2014-03-25T13:58:57Z</time>
      </trkpt>
      <trkpt lat="43.46523" lon="6.42204">
        <ele>126.39</ele>
        <time>2014-03-25T13:59:23Z</time>
      </trkpt>
      <trkpt lat="43.46519" lon="6.4223">
        <ele>126.91</ele>
        <time>2014-03-25T13:59:42Z</time>
      </trkpt>
      <trkpt lat="43.46519" lon="6.4223">
        <ele>126.91</ele>
        <time>2014-03-25T13:59:42Z</time>
      </trkpt>
      <trkpt lat="43.46505" lon="6.42249">
        <ele>127.17</ele>
        <time>2014-03-25T14:00:02Z</time>
      </trkpt>
      <trkpt lat="43.46498" lon="6.42273">
        <ele>128.07</ele>
        <time>2014-03-25T14:00:22Z</time>
      </trkpt>
      <trkpt lat="43.46508" lon="6.42294">
        <ele>129.45</ele>
        <time>2014-03-25T14:00:46Z</time>
      </trkpt>
      <trkpt lat="43.46518" lon="6.42314">
        <ele>128.47</ele>
        <time>2014-03-25T14:01:30Z</time>
      </trkpt>
      <trkpt lat="43.46525" lon="6.42339">
        <ele>129.29</ele>
        <time>2014-03-25T14:01:54Z</time>
      </trkpt>
      <trkpt lat="43.46524" lon="6.42364">
        <ele>130.1</ele>
        <time>2014-03-25T14:02:12Z</time>
      </trkpt>
      <trkpt lat="43.46526" lon="6.4239">
        <ele>131.14</ele>
        <time>2014-03-25T14:02:32Z</time>
      </trkpt>
      <trkpt lat="43.46527" lon="6.42416">
        <ele>132.61</ele>
        <time>2014-03-25T14:02:54Z</time>
      </trkpt>
      <trkpt lat="43.46527" lon="6.42416">
        <ele>132.61</ele>
        <time>2014-03-25T14:02:54Z</time>
      </trkpt>
      <trkpt lat="43.46527" lon="6.42443">
        <ele>134.02</ele>
        <time>2014-03-25T14:03:16Z</time>
      </trkpt>
      <trkpt lat="43.46527" lon="6.42468">
        <ele>133.78</ele>
        <time>2014-03-25T14:03:34Z</time>
      </trkpt>
      <trkpt lat="43.46509" lon="6.42462">
        <ele>131.93</ele>
        <time>2014-03-25T14:04:22Z</time>
      </trkpt>
      <trkpt lat="43.46501" lon="6.42437">
        <ele>131.57</ele>
        <time>2014-03-25T14:04:54Z</time>
      </trkpt>
      <trkpt lat="43.46492" lon="6.42414">
        <ele>132.18</ele>
        <time>2014-03-25T14:05:12Z</time>
      </trkpt>
      <trkpt lat="43.4648" lon="6.42395">
        <ele>132.8</ele>
        <time>2014-03-25T14:05:30Z</time>
      </trkpt>
      <trkpt lat="43.46465" lon="6.42379">
        <ele>131.36</ele>
        <time>2014-03-25T14:05:50Z</time>
      </trkpt>
      <trkpt lat="43.46465" lon="6.42379">
        <ele>131.36</ele>
        <time>2014-03-25T14:05:50Z</time>
      </trkpt>
      <trkpt lat="43.46448" lon="6.42367">
        <ele>129.81</ele>
        <time>2014-03-25T14:06:06Z</time>
      </trkpt>
      <trkpt lat="43.46431" lon="6.42355">
        <ele>128.88</ele>
        <time>2014-03-25T14:06:24Z</time>
      </trkpt>
      <trkpt lat="43.46414" lon="6.42345">
        <ele>129.81</ele>
        <time>2014-03-25T14:06:46Z</time>
      </trkpt>
      <trkpt lat="43.46396" lon="6.42346">
        <ele>132.79</ele>
        <time>2014-03-25T14:07:08Z</time>
      </trkpt>
      <trkpt lat="43.46377" lon="6.42355">
        <ele>133.88</ele>
        <time>2014-03-25T14:07:30Z</time>
      </trkpt>
      <trkpt lat="43.4636" lon="6.42365">
        <ele>135.02</ele>
        <time>2014-03-25T14:07:50Z</time>
      </trkpt>
      <trkpt lat="43.46344" lon="6.42379">
        <ele>136.32</ele>
        <time>2014-03-25T14:08:12Z</time>
      </trkpt>
      <trkpt lat="43.46329" lon="6.42396">
        <ele>137.12</ele>
        <time>2014-03-25T14:08:34Z</time>
      </trkpt>
      <trkpt lat="43.46316" lon="6.42414">
        <ele>137.82</ele>
        <time>2014-03-25T14:08:48Z</time>
      </trkpt>
      <trkpt lat="43.46303" lon="6.42432">
        <ele>138.99</ele>
        <time>2014-03-25T14:09:06Z</time>
      </trkpt>
      <trkpt lat="43.46291" lon="6.42454">
        <ele>138.66</ele>
        <time>2014-03-25T14:09:26Z</time>
      </trkpt>
      <trkpt lat="43.46279" lon="6.42474">
        <ele>138.4</ele>
        <time>2014-03-25T14:09:42Z</time>
      </trkpt>
      <trkpt lat="43.46266" lon="6.42493">
        <ele>138.13</ele>
        <time>2014-03-25T14:10:04Z</time>
      </trkpt>
      <trkpt lat="43.46254" lon="6.42515">
        <ele>138.26</ele>
        <time>2014-03-25T14:10:24Z</time>
      </trkpt>
      <trkpt lat="43.46247" lon="6.42541">
        <ele>138.54</ele>
        <time>2014-03-25T14:10:42Z</time>
      </trkpt>
      <trkpt lat="43.4624" lon="6.42567">
        <ele>137.63</ele>
        <time>2014-03-25T14:11:04Z</time>
      </trkpt>
      <trkpt lat="43.46235" lon="6.42591">
        <ele>137.13</ele>
        <time>2014-03-25T14:11:20Z</time>
      </trkpt>
      <trkpt lat="43.46231" lon="6.42615">
        <ele>138.01</ele>
        <time>2014-03-25T14:11:40Z</time>
      </trkpt>
      <trkpt lat="43.46227" lon="6.4264">
        <ele>139.1</ele>
        <time>2014-03-25T14:11:58Z</time>
      </trkpt>
      <trkpt lat="43.46227" lon="6.4264">
        <ele>139.1</ele>
        <time>2014-03-25T14:11:58Z</time>
      </trkpt>
      <trkpt lat="43.46221" lon="6.42666">
        <ele>139.85</ele>
        <time>2014-03-25T14:12:16Z</time>
      </trkpt>
      <trkpt lat="43.46216" lon="6.42691">
        <ele>142.4</ele>
        <time>2014-03-25T14:12:44Z</time>
      </trkpt>
      <trkpt lat="43.46214" lon="6.42699">
        <ele>142.99</ele>
        <time>2014-03-25T14:12:50Z</time>
      </trkpt>
      <trkpt lat="43.46208" lon="6.42723">
        <ele>144.48</ele>
        <time>2014-03-25T14:13:12Z</time>
      </trkpt>
      <trkpt lat="43.46206" lon="6.42739">
        <ele>145.54</ele>
        <time>2014-03-25T14:14:04Z</time>
      </trkpt>
      <trkpt lat="43.46207" lon="6.42741">
        <ele>146.76</ele>
        <time>2014-03-25T14:15:00Z</time>
      </trkpt>
      <trkpt lat="43.46209" lon="6.42766">
        <ele>147.59</ele>
        <time>2014-03-25T14:15:18Z</time>
      </trkpt>
      <trkpt lat="43.46203" lon="6.42791">
        <ele>146.84</ele>
        <time>2014-03-25T14:15:36Z</time>
      </trkpt>
      <trkpt lat="43.462" lon="6.42818">
        <ele>146.7</ele>
        <time>2014-03-25T14:15:58Z</time>
      </trkpt>
      <trkpt lat="43.46193" lon="6.42842">
        <ele>147</ele>
        <time>2014-03-25T14:16:18Z</time>
      </trkpt>
      <trkpt lat="43.46186" lon="6.42866">
        <ele>147.81</ele>
        <time>2014-03-25T14:16:38Z</time>
      </trkpt>
      <trkpt lat="43.46175" lon="6.42885">
        <ele>146.42</ele>
        <time>2014-03-25T14:17:04Z</time>
      </trkpt>
      <trkpt lat="43.46167" lon="6.42882">
        <ele>146.87</ele>
        <time>2014-03-25T14:17:26Z</time>
      </trkpt>
      <trkpt lat="43.46157" lon="6.42862">
        <ele>147.35</ele>
        <time>2014-03-25T14:17:42Z</time>
      </trkpt>
      <trkpt lat="43.46157" lon="6.42862">
        <ele>147.35</ele>
        <time>2014-03-25T14:17:42Z</time>
      </trkpt>
      <trkpt lat="43.46153" lon="6.42834">
        <ele>147.83</ele>
        <time>2014-03-25T14:18:02Z</time>
      </trkpt>
      <trkpt lat="43.46147" lon="6.4281">
        <ele>148.14</ele>
        <time>2014-03-25T14:18:24Z</time>
      </trkpt>
      <trkpt lat="43.46137" lon="6.42787">
        <ele>149.48</ele>
        <time>2014-03-25T14:18:40Z</time>
      </trkpt>
      <trkpt lat="43.46124" lon="6.4277">
        <ele>150.72</ele>
        <time>2014-03-25T14:19:06Z</time>
      </trkpt>
      <trkpt lat="43.46119" lon="6.42746">
        <ele>151.44</ele>
        <time>2014-03-25T14:19:22Z</time>
      </trkpt>
      <trkpt lat="43.46122" lon="6.4273">
        <ele>155.01</ele>
        <time>2014-03-25T14:19:56Z</time>
      </trkpt>
      <trkpt lat="43.46125" lon="6.42756">
        <ele>155.05</ele>
        <time>2014-03-25T14:20:22Z</time>
      </trkpt>
      <trkpt lat="43.46132" lon="6.42779">
        <ele>154.82</ele>
        <time>2014-03-25T14:20:43Z</time>
      </trkpt>
      <trkpt lat="43.46132" lon="6.42779">
        <ele>154.82</ele>
        <time>2014-03-25T14:20:43Z</time>
      </trkpt>
      <trkpt lat="43.46143" lon="6.42799">
        <ele>155.33</ele>
        <time>2014-03-25T14:21:01Z</time>
      </trkpt>
      <trkpt lat="43.46154" lon="6.42819">
        <ele>155.4</ele>
        <time>2014-03-25T14:21:23Z</time>
      </trkpt>
      <trkpt lat="43.46161" lon="6.42843">
        <ele>155.93</ele>
        <time>2014-03-25T14:21:49Z</time>
      </trkpt>
      <trkpt lat="43.46162" lon="6.42868">
        <ele>154.85</ele>
        <time>2014-03-25T14:22:11Z</time>
      </trkpt>
      <trkpt lat="43.46161" lon="6.42895">
        <ele>152.84</ele>
        <time>2014-03-25T14:22:39Z</time>
      </trkpt>
      <trkpt lat="43.46177" lon="6.42903">
        <ele>154.2</ele>
        <time>2014-03-25T14:23:51Z</time>
      </trkpt>
      <trkpt lat="43.46177" lon="6.42903">
        <ele>154.2</ele>
        <time>2014-03-25T14:23:51Z</time>
      </trkpt>
      <trkpt lat="43.46184" lon="6.42905">
        <ele>153.86</ele>
        <time>2014-03-25T14:24:16Z</time>
      </trkpt>
      <trkpt lat="43.46203" lon="6.42896">
        <ele>154.31</ele>
        <time>2014-03-25T14:24:52Z</time>
      </trkpt>
      <trkpt lat="43.4622" lon="6.42887">
        <ele>157.22</ele>
        <time>2014-03-25T14:25:26Z</time>
      </trkpt>
      <trkpt lat="43.46233" lon="6.42885">
        <ele>161.13</ele>
        <time>2014-03-25T14:26:10Z</time>
      </trkpt>
      <trkpt lat="43.46246" lon="6.4288">
        <ele>165.06</ele>
        <time>2014-03-25T14:26:34Z</time>
      </trkpt>
      <trkpt lat="43.46259" lon="6.42876">
        <ele>170.27</ele>
        <time>2014-03-25T14:27:02Z</time>
      </trkpt>
      <trkpt lat="43.46272" lon="6.42867">
        <ele>175.08</ele>
        <time>2014-03-25T14:27:44Z</time>
      </trkpt>
      <trkpt lat="43.46288" lon="6.4285">
        <ele>176.46</ele>
        <time>2014-03-25T14:28:00Z</time>
      </trkpt>
      <trkpt lat="43.46298" lon="6.42829">
        <ele>178.53</ele>
        <time>2014-03-25T14:28:26Z</time>
      </trkpt>
      <trkpt lat="43.46312" lon="6.42813">
        <ele>181.08</ele>
        <time>2014-03-25T14:28:50Z</time>
      </trkpt>
      <trkpt lat="43.46326" lon="6.42804">
        <ele>189.79</ele>
        <time>2014-03-25T14:29:58Z</time>
      </trkpt>
      <trkpt lat="43.46326" lon="6.42804">
        <ele>189.79</ele>
        <time>2014-03-25T14:29:58Z</time>
      </trkpt>
      <trkpt lat="43.46325" lon="6.42811">
        <ele>189.53</ele>
        <time>2014-03-25T14:30:54Z</time>
      </trkpt>
      <trkpt lat="43.46335" lon="6.42809">
        <ele>191.08</ele>
        <time>2014-03-25T14:31:52Z</time>
      </trkpt>
      <trkpt lat="43.46347" lon="6.42829">
        <ele>192.03</ele>
        <time>2014-03-25T14:32:12Z</time>
      </trkpt>
      <trkpt lat="43.46358" lon="6.42849">
        <ele>195.87</ele>
        <time>2014-03-25T14:32:38Z</time>
      </trkpt>
      <trkpt lat="43.46372" lon="6.42865">
        <ele>198.2</ele>
        <time>2014-03-25T14:33:00Z</time>
      </trkpt>
      <trkpt lat="43.46372" lon="6.42865">
        <ele>198.2</ele>
        <time>2014-03-25T14:33:00Z</time>
      </trkpt>
      <trkpt lat="43.46382" lon="6.42887">
        <ele>200.43</ele>
        <time>2014-03-25T14:33:30Z</time>
      </trkpt>
      <trkpt lat="43.46397" lon="6.42903">
        <ele>203.34</ele>
        <time>2014-03-25T14:34:08Z</time>
      </trkpt>
      <trkpt lat="43.46413" lon="6.42919">
        <ele>205.42</ele>
        <time>2014-03-25T14:34:38Z</time>
      </trkpt>
      <trkpt lat="43.46424" lon="6.42931">
        <ele>207.84</ele>
        <time>2014-03-25T14:35:26Z</time>
      </trkpt>
      <trkpt lat="43.46424" lon="6.42931">
        <ele>207.84</ele>
        <time>2014-03-25T14:35:26Z</time>
      </trkpt>
      <trkpt lat="43.46425" lon="6.42928">
        <ele>208.96</ele>
        <time>2014-03-25T14:36:44Z</time>
      </trkpt>
      <trkpt lat="43.46444" lon="6.4293">
        <ele>209.09</ele>
        <time>2014-03-25T14:37:04Z</time>
      </trkpt>
      <trkpt lat="43.46463" lon="6.42932">
        <ele>210.2</ele>
        <time>2014-03-25T14:37:24Z</time>
      </trkpt>
      <trkpt lat="43.46471" lon="6.42954">
        <ele>213.01</ele>
        <time>2014-03-25T14:37:52Z</time>
      </trkpt>
      <trkpt lat="43.46471" lon="6.4298">
        <ele>215.97</ele>
        <time>2014-03-25T14:38:18Z</time>
      </trkpt>
      <trkpt lat="43.46475" lon="6.43005">
        <ele>218.13</ele>
        <time>2014-03-25T14:38:40Z</time>
      </trkpt>
      <trkpt lat="43.46476" lon="6.4303">
        <ele>219.87</ele>
        <time>2014-03-25T14:39:00Z</time>
      </trkpt>
      <trkpt lat="43.46476" lon="6.4303">
        <ele>219.87</ele>
        <time>2014-03-25T14:39:00Z</time>
      </trkpt>
      <trkpt lat="43.46457" lon="6.43031">
        <ele>218.81</ele>
        <time>2014-03-25T14:39:38Z</time>
      </trkpt>
      <trkpt lat="43.46437" lon="6.43033">
        <ele>218.5</ele>
        <time>2014-03-25T14:39:58Z</time>
      </trkpt>
      <trkpt lat="43.4642" lon="6.43038">
        <ele>219.31</ele>
        <time>2014-03-25T14:40:16Z</time>
      </trkpt>
      <trkpt lat="43.46403" lon="6.43051">
        <ele>220.57</ele>
        <time>2014-03-25T14:40:40Z</time>
      </trkpt>
      <trkpt lat="43.46387" lon="6.43066">
        <ele>218.9</ele>
        <time>2014-03-25T14:41:20Z</time>
      </trkpt>
      <trkpt lat="43.46369" lon="6.43077">
        <ele>217.75</ele>
        <time>2014-03-25T14:41:42Z</time>
      </trkpt>
      <trkpt lat="43.46369" lon="6.43077">
        <ele>217.75</ele>
        <time>2014-03-25T14:41:42Z</time>
      </trkpt>
      <trkpt lat="43.46351" lon="6.43086">
        <ele>218.66</ele>
        <time>2014-03-25T14:42:02Z</time>
      </trkpt>
      <trkpt lat="43.46333" lon="6.43095">
        <ele>219.24</ele>
        <time>2014-03-25T14:42:24Z</time>
      </trkpt>
      <trkpt lat="43.46318" lon="6.43111">
        <ele>219.4</ele>
        <time>2014-03-25T14:42:44Z</time>
      </trkpt>
      <trkpt lat="43.46303" lon="6.43125">
        <ele>219.4</ele>
        <time>2014-03-25T14:43:08Z</time>
      </trkpt>
      <trkpt lat="43.46292" lon="6.43145">
        <ele>219.11</ele>
        <time>2014-03-25T14:43:32Z</time>
      </trkpt>
      <trkpt lat="43.46286" lon="6.4317">
        <ele>219.2</ele>
        <time>2014-03-25T14:43:56Z</time>
      </trkpt>
      <trkpt lat="43.46281" lon="6.43194">
        <ele>220.04</ele>
        <time>2014-03-25T14:44:20Z</time>
      </trkpt>
      <trkpt lat="43.4627" lon="6.43214">
        <ele>220.07</ele>
        <time>2014-03-25T14:44:42Z</time>
      </trkpt>
      <trkpt lat="43.4627" lon="6.43214">
        <ele>220.07</ele>
        <time>2014-03-25T14:44:42Z</time>
      </trkpt>
      <trkpt lat="43.46253" lon="6.43227">
        <ele>220.79</ele>
        <time>2014-03-25T14:45:04Z</time>
      </trkpt>
      <trkpt lat="43.46235" lon="6.43225">
        <ele>221.91</ele>
        <time>2014-03-25T14:45:28Z</time>
      </trkpt>
      <trkpt lat="43.46216" lon="6.43223">
        <ele>222.79</ele>
        <time>2014-03-25T14:45:58Z</time>
      </trkpt>
      <trkpt lat="43.46198" lon="6.43218">
        <ele>222.43</ele>
        <time>2014-03-25T14:46:16Z</time>
      </trkpt>
      <trkpt lat="43.46178" lon="6.4322">
        <ele>220.82</ele>
        <time>2014-03-25T14:46:40Z</time>
      </trkpt>
      <trkpt lat="43.46158" lon="6.43226">
        <ele>219</ele>
        <time>2014-03-25T14:47:02Z</time>
      </trkpt>
      <trkpt lat="43.4614" lon="6.43221">
        <ele>216.94</ele>
        <time>2014-03-25T14:47:18Z</time>
      </trkpt>
      <trkpt lat="43.46121" lon="6.43217">
        <ele>216.71</ele>
        <time>2014-03-25T14:47:32Z</time>
      </trkpt>
      <trkpt lat="43.46113" lon="6.43211">
        <ele>216.24</ele>
        <time>2014-03-25T14:48:08Z</time>
      </trkpt>
      <trkpt lat="43.46098" lon="6.43197">
        <ele>214.37</ele>
        <time>2014-03-25T14:48:31Z</time>
      </trkpt>
      <trkpt lat="43.46083" lon="6.4318">
        <ele>214.59</ele>
        <time>2014-03-25T14:48:59Z</time>
      </trkpt>
      <trkpt lat="43.46066" lon="6.43165">
        <ele>214.67</ele>
        <time>2014-03-25T14:49:21Z</time>
      </trkpt>
      <trkpt lat="43.4605" lon="6.4315">
        <ele>215.53</ele>
        <time>2014-03-25T14:49:39Z</time>
      </trkpt>
      <trkpt lat="43.46033" lon="6.43158">
        <ele>214.15</ele>
        <time>2014-03-25T14:50:01Z</time>
      </trkpt>
      <trkpt lat="43.46015" lon="6.43154">
        <ele>212.53</ele>
        <time>2014-03-25T14:50:19Z</time>
      </trkpt>
      <trkpt lat="43.45999" lon="6.43138">
        <ele>212.7</ele>
        <time>2014-03-25T14:50:33Z</time>
      </trkpt>
      <trkpt lat="43.45982" lon="6.43131">
        <ele>211.69</ele>
        <time>2014-03-25T14:50:55Z</time>
      </trkpt>
      <trkpt lat="43.45982" lon="6.43131">
        <ele>211.69</ele>
        <time>2014-03-25T14:50:55Z</time>
      </trkpt>
    </trkseg>
  </trk>
</gpx>